Terminal Aerodrome Forecast
Issued by NWS Charleston, WV

Current Version | Previous Version | Text Only | Print | Product List | Glossary Off
Versions: 1 2 3 4 5 6 7 8 9 10 11 12 13 14 15 16 17 18 19 20 21 22 23 24

000
FTUS41 KRLX 182100 AAA
TAFPKB
TAF AMD
KPKB 182122Z 1821/1918 33008KT P6SM OVC035
     FM182200 28007KT P6SM OVC025
     FM191100 30004KT 6SM BR SCT015
     FM191400 29005KT P6SM SCT030=

USA.gov is the U.S. government's official web portal to all federal, state and local government web resources and services.